Time;durP1;ratioP1;P1;durP2;ratioP2;P2;SDS_P1;SDS_P2;PMS_P1;PMS_P2;Temp;Humidity;BMP_temperature;BMP_pressure;BME280_temperature;BME280_humidity;BME280_pressure;Samples;Min_cycle;Max_cycle;Signal;HPM_P1;HPM_P2
2022/08/28 00:00:18;;;;;;;1999.90;999.90;;;;;;;17.77;100.00;85109.59;4919721;29;20201;-61
2022/08/28 00:02:45;;;;;;;1999.90;999.90;;;;;;;17.77;100.00;85110.25;4935226;29;20205;-61
2022/08/28 00:05:13;;;;;;;1999.90;999.90;;;;;;;17.80;100.00;85102.66;4919150;29;20210;-62
2022/08/28 00:07:38;;;;;;;1999.90;999.90;;;;;;;17.82;100.00;85077.84;4935500;29;20278;-61
2022/08/28 00:10:08;;;;;;;1999.90;999.90;;;;;;;17.80;100.00;85042.03;4919479;29;20233;-61
2022/08/28 00:12:35;;;;;;;1999.90;999.90;;;;;;;17.77;100.00;85022.06;4919187;29;20193;-61
2022/08/28 00:15:02;;;;;;;1999.90;999.90;;;;;;;17.75;100.00;85011.06;4919324;29;20197;-62
2022/08/28 00:17:27;;;;;;;1999.90;999.90;;;;;;;17.73;100.00;85010.38;4919420;29;20182;-61
2022/08/28 00:19:52;;;;;;;1999.90;999.90;;;;;;;17.71;100.00;85024.19;4919121;29;20197;-61
2022/08/28 00:22:18;;;;;;;1999.90;999.90;;;;;;;17.73;100.00;85032.44;4920359;29;20192;-61
2022/08/28 00:24:44;;;;;;;1999.90;999.90;;;;;;;17.72;100.00;85047.59;4922318;29;20210;-61
2022/08/28 00:29:54;;;;;;;1999.90;999.90;;;;;;;17.60;100.00;85086.28;4939796;29;20277;-62
2022/08/28 00:32:22;;;;;;;1999.90;999.90;;;;;;;17.64;100.00;85086.25;4922330;29;20210;-61
2022/08/28 00:34:47;;;;;;;1999.90;999.90;;;;;;;17.68;100.00;85080.69;4922428;29;20193;-61
2022/08/28 00:37:13;;;;;;;1999.90;999.90;;;;;;;17.69;100.00;85090.31;4922052;29;20295;-62
2022/08/28 00:39:38;;;;;;;1999.90;999.90;;;;;;;17.75;100.00;85079.28;4938086;29;20197;-61
2022/08/28 00:42:04;;;;;;;1999.90;999.90;;;;;;;17.77;100.00;85074.44;4922084;29;20274;-62
2022/08/28 00:44:30;;;;;;;1999.90;999.90;;;;;;;17.78;100.00;85073.03;4922463;29;20213;-61
2022/08/28 00:46:58;;;;;;;1999.90;999.90;;;;;;;17.79;100.00;85077.19;4922124;29;20194;-61
2022/08/28 00:49:26;;;;;;;1999.90;999.90;;;;;;;17.83;100.00;85079.22;4922524;29;20206;-61
2022/08/28 00:52:10;;;;;;;1999.90;999.90;;;;;;;17.83;100.00;85090.94;4922186;29;20240;-61
2022/08/28 00:54:53;;;;;;;1999.90;999.90;;;;;;;17.84;100.00;85102.63;4922095;29;20185;-61
2022/08/28 00:57:25;;;;;;;1999.90;999.90;;;;;;;17.85;100.00;85104.69;4922425;29;20201;-61
2022/08/28 00:59:51;;;;;;;1999.90;999.90;;;;;;;17.87;100.00;85112.25;4922088;29;20189;-61
2022/08/28 01:02:17;;;;;;;1999.90;999.90;;;;;;;17.89;100.00;85110.16;4921703;29;20186;-61
2022/08/28 01:04:42;;;;;;;1999.90;999.90;;;;;;;17.90;100.00;85099.84;4922351;29;20217;-60
2022/08/28 01:07:13;;;;;;;1999.90;999.90;;;;;;;17.92;100.00;85105.34;4922183;29;20194;-60
2022/08/28 01:09:43;;;;;;;1999.90;999.90;;;;;;;17.90;100.00;85100.53;4921660;29;20196;-61
2022/08/28 01:12:27;;;;;;;1999.90;999.90;;;;;;;17.93;100.00;85076.38;4922019;29;20221;-60
2022/08/28 01:15:00;;;;;;;1999.90;999.90;;;;;;;17.94;100.00;85055.69;4921937;29;20221;-61
2022/08/28 01:17:30;;;;;;;1999.90;999.90;;;;;;;17.93;100.00;85040.56;4937566;29;20229;-61
2022/08/28 01:20:01;;;;;;;1999.90;999.90;;;;;;;17.97;100.00;85059.81;4921878;29;20280;-61
2022/08/28 01:22:36;;;;;;;1999.90;999.90;;;;;;;17.96;100.00;85075.00;4921752;29;20190;-61
2022/08/28 01:25:10;;;;;;;1999.90;999.90;;;;;;;17.98;100.00;85080.47;4921709;29;20209;-62
2022/08/28 01:27:36;;;;;;;1999.90;999.90;;;;;;;17.98;100.00;85089.44;4921921;29;20220;-61
2022/08/28 01:30:01;;;;;;;1999.90;999.90;;;;;;;17.96;100.00;85105.31;4921347;29;20194;-61
2022/08/28 01:32:35;;;;;;;1999.90;999.90;;;;;;;17.94;100.00;85114.28;4937857;29;20206;-61
2022/08/28 01:35:01;;;;;;;1999.90;999.90;;;;;;;17.97;100.00;85081.88;4936316;29;20197;-62
2022/08/28 01:37:27;;;;;;;1999.90;999.90;;;;;;;17.98;100.00;85091.50;4921324;29;20241;-60
2022/08/28 01:39:53;;;;;;;1999.90;999.90;;;;;;;17.97;100.00;85117.69;4921613;29;20189;-62
2022/08/28 01:42:19;;;;;;;1999.90;999.90;;;;;;;17.94;100.00;85128.06;4921574;29;20230;-61
2022/08/28 01:44:44;;;;;;;1999.90;999.90;;;;;;;17.92;100.00;85146.69;4921287;29;20210;-61
2022/08/28 01:47:10;;;;;;;1999.90;999.90;;;;;;;17.94;100.00;85160.44;4921151;29;20190;-61
2022/08/28 01:49:36;;;;;;;1999.90;999.90;;;;;;;17.96;100.00;85157.69;4920980;29;20213;-61
2022/08/28 01:52:02;;;;;;;1999.90;999.90;;;;;;;17.96;100.00;85165.97;4920960;29;20272;-61
2022/08/28 01:54:27;;;;;;;1999.90;999.90;;;;;;;17.98;100.00;85160.41;4921436;29;20190;-61
2022/08/28 01:56:53;;;;;;;1999.90;999.90;;;;;;;17.98;100.00;85165.94;4937543;29;20192;-60
2022/08/28 01:59:19;;;;;;;1999.90;999.90;;;;;;;17.95;100.00;85178.38;4921148;29;20244;-60
2022/08/28 02:01:45;;;;;;;1999.90;999.90;;;;;;;17.95;100.00;85178.38;4921124;29;20225;-61
2022/08/28 02:04:10;;;;;;;1999.90;999.90;;;;;;;17.95;100.00;85183.88;4937122;29;20186;-61
2022/08/28 02:06:36;;;;;;;1999.90;999.90;;;;;;;18.00;100.00;85182.47;4921107;29;20218;-61
2022/08/28 02:09:04;;;;;;;1999.90;999.90;;;;;;;17.98;100.00;85199.00;4920768;29;20203;-61
2022/08/28 02:11:30;;;;;;;1999.90;999.90;;;;;;;18.01;100.00;85192.81;4920921;29;20196;-61
2022/08/28 02:13:56;;;;;;;1999.90;999.90;;;;;;;18.03;100.00;85200.38;4921377;29;20200;-61
2022/08/28 02:16:22;;;;;;;1999.90;999.90;;;;;;;18.02;100.00;85254.81;4920476;29;20201;-61
2022/08/28 02:18:47;;;;;;;1999.90;999.90;;;;;;;18.02;100.00;85249.31;4936811;29;20288;-61
2022/08/28 02:21:13;;;;;;;1999.90;999.90;;;;;;;18.02;100.00;85243.09;4920612;29;20193;-61
2022/08/28 02:23:41;;;;;;;1999.90;999.90;;;;;;;18.00;100.00;85196.94;4921275;29;20240;-62
2022/08/28 02:26:07;;;;;;;1999.90;999.90;;;;;;;18.01;100.00;85219.69;4920786;29;20218;-61
2022/08/28 02:28:33;;;;;;;1999.90;999.90;;;;;;;18.00;100.00;85234.84;4936356;29;20185;-61
2022/08/28 02:30:59;;;;;;;1999.90;999.90;;;;;;;18.00;100.00;85256.91;4936436;29;20225;-61
2022/08/28 02:33:24;;;;;;;1999.90;999.90;;;;;;;17.99;100.00;85266.56;4920456;29;20200;-61
2022/08/28 02:35:50;;;;;;;1999.90;999.90;;;;;;;17.98;100.00;85265.88;4920488;29;20205;-60
2022/08/28 02:38:16;;;;;;;1999.90;999.90;;;;;;;17.99;100.00;85269.31;4920411;29;20258;-61
2022/08/28 02:40:42;;;;;;;1999.90;999.90;;;;;;;17.98;100.00;85276.91;4920513;29;20190;-61
2022/08/28 02:43:08;;;;;;;1999.90;999.90;;;;;;;17.95;100.00;85291.41;4920175;29;20226;-60
2022/08/28 02:45:34;;;;;;;1999.90;999.90;;;;;;;17.96;100.00;85295.53;4919754;29;20309;-61
2022/08/28 02:48:00;;;;;;;1999.90;999.90;;;;;;;17.98;100.00;85287.22;4936345;29;20257;-60
2022/08/28 02:50:28;;;;;;;1999.90;999.90;;;;;;;18.01;100.00;85296.88;4936654;29;20188;-61
2022/08/28 02:52:54;;;;;;;1999.90;999.90;;;;;;;18.00;100.00;85303.78;4920354;29;20216;-61
2022/08/28 02:55:20;;;;;;;1999.90;999.90;;;;;;;18.00;100.00;85312.03;4920129;29;20196;-61
2022/08/28 02:57:46;;;;;;;1999.90;999.90;;;;;;;17.98;100.00;85331.34;4920695;29;20198;-60
2022/08/28 03:00:16;;;;;;;1999.90;999.90;;;;;;;17.97;100.00;85330.66;4936327;29;20197;-61
2022/08/28 03:02:44;;;;;;;1999.90;999.90;;;;;;;17.98;100.00;85339.59;4920526;29;20186;-61
2022/08/28 03:05:10;;;;;;;1999.90;999.90;;;;;;;18.03;100.00;85338.22;4920119;29;20213;-60
2022/08/28 03:07:35;;;;;;;1999.90;999.90;;;;;;;18.01;100.00;85340.97;4920103;29;20197;-61
2022/08/28 03:10:00;;;;;;;1999.90;999.90;;;;;;;18.01;100.00;85354.75;4920291;29;20321;-60
2022/08/28 03:12:26;;;;;;;1999.90;999.90;;;;;;;18.03;100.00;85344.41;4936465;29;20212;-61
2022/08/28 03:14:52;;;;;;;1999.90;999.90;;;;;;;18.06;100.00;85411.28;4920169;29;20237;-60
2022/08/28 03:17:19;;;;;;;1999.90;999.90;;;;;;;18.03;100.00;93803.03;4919812;29;20190;-61
2022/08/28 03:19:44;;;;;;;1999.90;999.90;;;;;;;18.03;100.00;93463.22;4920006;29;20276;-60
2022/08/28 03:22:10;;;;;;;1999.90;999.90;;;;;;;18.03;100.00;93291.94;4919925;29;20221;-60
2022/08/28 03:24:36;;;;;;;1999.90;999.90;;;;;;;18.00;100.00;93182.44;4919759;29;20189;-61
2022/08/28 03:27:03;;;;;;;1999.90;999.90;;;;;;;18.02;100.00;93084.00;4919558;29;20221;-60
2022/08/28 03:29:28;;;;;;;1999.90;999.90;;;;;;;18.00;100.00;92998.13;4919871;29;20190;-60
2022/08/28 03:31:54;;;;;;;1999.90;999.90;;;;;;;18.00;100.00;92931.06;4919596;29;20194;-60
2022/08/28 03:34:19;;;;;;;1999.90;999.90;;;;;;;18.00;100.00;92868.31;4935657;29;20190;-60
2022/08/28 03:36:45;;;;;;;1999.90;999.90;;;;;;;18.00;100.00;92813.06;4919709;29;20197;-60
2022/08/28 03:39:10;;;;;;;1999.90;999.90;;;;;;;18.03;100.00;92764.34;4919916;29;20186;-60
2022/08/28 03:41:36;;;;;;;1999.90;999.90;;;;;;;18.05;100.00;92731.41;4935746;29;20277;-60
2022/08/28 03:44:02;;;;;;;1999.90;999.90;;;;;;;18.03;100.00;92700.81;4919975;29;20248;-60
2022/08/28 03:46:31;;;;;;;1999.90;999.90;;;;;;;18.03;100.00;92671.16;4919320;29;20210;-60
2022/08/28 03:48:58;;;;;;;1999.90;999.90;;;;;;;18.03;100.00;92646.28;4919577;29;20210;-60
2022/08/28 03:51:27;;;;;;;1999.90;999.90;;;;;;;18.02;100.00;92611.66;4919243;29;20201;-61
2022/08/28 03:53:53;;;;;;;1999.90;999.90;;;;;;;18.03;100.00;92590.31;4919948;29;20193;-60
2022/08/28 03:56:21;;;;;;;1999.90;999.90;;;;;;;18.02;100.00;92566.72;4919403;29;20281;-60
2022/08/28 03:58:50;;;;;;;1999.90;999.90;;;;;;;18.04;100.00;92547.63;4922889;29;20189;-61
2022/08/28 04:01:16;;;;;;;1999.90;999.90;;;;;;;18.01;100.00;92521.03;4923120;29;20204;-61
2022/08/28 04:03:42;;;;;;;1999.90;999.90;;;;;;;18.03;100.00;92507.47;4923200;29;20194;-60
2022/08/28 04:06:07;;;;;;;1999.90;999.90;;;;;;;18.03;100.00;92491.63;4922547;29;20349;-61
2022/08/28 04:08:32;;;;;;;1999.90;999.90;;;;;;;18.03;100.00;92475.03;4922495;29;20272;-60
2022/08/28 04:10:59;;;;;;;1999.90;999.90;;;;;;;18.03;100.00;92464.00;4922689;29;20194;-61
2022/08/28 04:13:26;;;;;;;1999.90;999.90;;;;;;;18.03;100.00;92449.47;4938441;29;20194;-60
2022/08/28 04:15:57;;;;;;;1999.90;999.90;;;;;;;18.03;100.00;92424.59;4922843;29;20253;-60
2022/08/28 04:18:23;;;;;;;1999.90;999.90;;;;;;;18.03;100.00;92419.06;4922596;29;20244;-61
2022/08/28 04:21:06;;;;;;;1999.90;999.90;;;;;;;18.01;100.00;92402.28;4922611;29;20193;-61
2022/08/28 04:23:32;;;;;;;1999.90;999.90;;;;;;;18.01;100.00;92391.97;4923017;29;20222;-61
2022/08/28 04:25:59;;;;;;;1999.90;999.90;;;;;;;18.02;100.00;92373.38;4922835;29;20213;-60
2022/08/28 04:28:25;;;;;;;1999.90;999.90;;;;;;;17.99;100.00;92374.44;4922377;29;20224;-61
2022/08/28 04:30:55;;;;;;;1999.90;999.90;;;;;;;18.00;100.00;92359.34;4922015;29;20220;-61
2022/08/28 04:33:22;;;;;;;1999.90;999.90;;;;;;;18.00;100.00;92348.31;4922733;29;20200;-61
2022/08/28 04:35:48;;;;;;;1999.90;999.90;;;;;;;18.01;100.00;92338.75;4922269;29;20225;-61
2022/08/28 04:38:13;;;;;;;1999.90;999.90;;;;;;;18.03;100.00;92331.41;4922678;29;20225;-59
2022/08/28 04:40:40;;;;;;;1999.90;999.90;;;;;;;18.01;100.00;92328.47;4922196;29;20194;-62
2022/08/28 04:43:06;;;;;;;1999.90;999.90;;;;;;;18.05;100.00;92311.56;4922312;29;20305;-61
2022/08/28 04:45:31;;;;;;;1999.90;999.90;;;;;;;18.05;100.00;92295.75;4922220;29;20210;-61
2022/08/28 04:47:57;;;;;;;1999.90;999.90;;;;;;;18.08;100.00;92282.91;4922437;29;20222;-61
2022/08/28 04:50:22;;;;;;;1999.90;999.90;;;;;;;18.09;100.00;92273.34;4922490;29;20198;-61
2022/08/28 04:52:49;;;;;;;1999.90;999.90;;;;;;;18.11;100.00;92270.81;4922183;29;20236;-61
2022/08/28 04:55:15;;;;;;;1999.90;999.90;;;;;;;18.12;100.00;92261.22;4922008;29;20289;-62
2022/08/28 04:57:41;;;;;;;1999.90;999.90;;;;;;;18.12;100.00;92261.22;4922239;29;20317;-61
2022/08/28 05:00:08;;;;;;;1999.90;999.90;;;;;;;18.15;100.00;92243.59;4921653;29;20198;-61
2022/08/28 05:02:33;;;;;;;1999.90;999.90;;;;;;;18.15;100.00;92241.59;4938156;29;20221;-61
2022/08/28 05:04:59;;;;;;;1999.90;999.90;;;;;;;18.18;100.00;92237.75;4921697;29;20281;-61
2022/08/28 05:07:24;;;;;;;1999.90;999.90;;;;;;;18.20;100.00;92234.47;4921626;29;20316;-61
2022/08/28 05:09:53;;;;;;;1999.90;999.90;;;;;;;18.21;100.00;92230.47;4921698;29;20288;-61
2022/08/28 05:12:18;;;;;;;1999.90;999.90;;;;;;;18.21;100.00;92222.91;4921677;29;20205;-61
2022/08/28 05:14:44;;;;;;;1999.90;999.90;;;;;;;18.23;100.00;92217.59;4922313;29;20197;-61
2022/08/28 05:17:12;;;;;;;1999.90;999.90;;;;;;;18.25;100.00;92228.13;4922021;29;20262;-61
2022/08/28 05:19:37;;;;;;;1999.90;999.90;;;;;;;18.27;100.00;92217.28;4921600;29;20189;-61
2022/08/28 05:22:03;;;;;;;1999.90;999.90;;;;;;;18.27;100.00;92211.75;4921783;29;20189;-60
2022/08/28 05:24:29;;;;;;;1999.90;999.90;;;;;;;18.26;100.00;92213.78;4921827;29;20189;-60
2022/08/28 05:26:55;;;;;;;1999.90;999.90;;;;;;;18.29;100.00;92209.22;4921643;29;20194;-60
2022/08/28 05:29:20;;;;;;;1999.90;999.90;;;;;;;18.35;100.00;92198.81;4921821;29;20177;-60
2022/08/28 05:31:46;;;;;;;1999.90;999.90;;;;;;;18.35;100.00;92193.28;4921975;29;20193;-60
2022/08/28 05:34:12;;;;;;;1999.90;999.90;;;;;;;18.38;100.00;92195.75;4921997;29;20188;-61
2022/08/28 05:36:38;;;;;;;1999.90;999.90;;;;;;;18.42;100.00;92185.13;4921737;29;20233;-60
2022/08/28 05:39:08;;;;;;;1999.90;999.90;;;;;;;18.48;100.00;92187.78;4937156;29;20285;-62
2022/08/28 05:41:34;;;;;;;1999.90;999.90;;;;;;;18.45;100.00;92183.31;4936925;29;20185;-61
2022/08/28 05:44:04;;;;;;;1999.90;999.90;;;;;;;18.46;100.00;92185.53;4921800;29;20277;-61
2022/08/28 05:46:29;;;;;;;1999.90;999.90;;;;;;;18.49;100.00;92183.72;4921177;29;20237;-60
2022/08/28 05:48:56;;;;;;;1999.90;999.90;;;;;;;18.52;100.00;92185.44;4921302;29;20328;-61
2022/08/28 05:51:25;;;;;;;1999.90;999.90;;;;;;;18.52;100.00;92183.41;4921689;29;20284;-62
2022/08/28 05:53:50;;;;;;;1999.90;999.90;;;;;;;18.57;100.00;92184.56;4937430;29;20198;-61
2022/08/28 05:56:22;;;;;;;1999.90;999.90;;;;;;;18.52;100.00;92190.94;4937256;29;20205;-60
2022/08/28 05:58:48;;;;;;;1999.90;999.90;;;;;;;18.54;100.00;92180.13;4921558;29;20197;-58
2022/08/28 06:01:25;;;;;;;1999.90;999.90;;;;;;;18.57;100.00;92190.84;4921050;29;20197;-60
2022/08/28 06:04:04;;;;;;;1999.90;999.90;;;;;;;18.65;100.00;92197.22;4921357;29;20249;-60
2022/08/28 06:06:33;;;;;;;1999.90;999.90;;;;;;;18.63;100.00;92201.78;4921057;29;20285;-60
2022/08/28 06:09:11;;;;;;;1999.90;999.90;;;;;;;18.65;100.00;92207.56;4921074;29;20229;-60
2022/08/28 06:11:40;;;;;;;1999.90;999.90;;;;;;;18.67;100.00;92216.03;4921267;29;20185;-60
2022/08/28 06:14:11;;;;;;;1999.90;999.90;;;;;;;18.68;100.00;92212.00;4920684;29;20277;-60
2022/08/28 06:16:40;;;;;;;1999.90;999.90;;;;;;;18.69;100.00;92219.75;4920924;29;20200;-60
2022/08/28 06:19:08;;;;;;;1999.90;999.90;;;;;;;18.69;100.00;92219.03;4920902;29;20186;-60
2022/08/28 06:21:34;;;;;;;1999.90;999.90;;;;;;;18.66;100.00;92228.38;4920502;29;20194;-59
2022/08/28 06:23:59;;;;;;;1999.90;999.90;;;;;;;18.73;100.00;92236.75;4920759;29;20194;-59
2022/08/28 06:26:26;;;;;;;1999.90;999.90;;;;;;;18.82;100.00;92232.81;4920294;29;20221;-61
2022/08/28 06:28:52;;;;;;;1999.90;999.90;;;;;;;18.87;100.00;92243.78;4920476;29;20221;-59
2022/08/28 06:31:18;;;;;;;1999.90;999.90;;;;;;;18.88;100.00;92244.53;4921248;29;20190;-60
2022/08/28 06:33:44;;;;;;;1999.90;999.90;;;;;;;18.89;100.00;92257.06;4920572;29;20189;-59
2022/08/28 06:36:11;;;;;;;1999.90;999.90;;;;;;;18.91;100.00;92262.84;4921237;29;20236;-59
2022/08/28 06:38:36;;;;;;;1999.90;999.90;;;;;;;18.95;100.00;92274.31;4920716;29;20193;-59
2022/08/28 06:41:08;;;;;;;1999.90;999.90;;;;;;;18.97;100.00;92277.28;4936342;29;20193;-59
2022/08/28 06:43:33;;;;;;;1999.90;999.90;;;;;;;18.96;100.00;92281.34;4920319;29;20213;-61
2022/08/28 06:45:59;;;;;;;1999.90;999.90;;;;;;;18.99;100.00;92286.56;4919743;29;20273;-60
2022/08/28 06:48:26;;;;;;;1999.90;999.90;;;;;;;19.02;100.00;92288.25;4920393;29;20209;-59
2022/08/28 06:50:53;;;;;;;1999.90;999.90;;;;;;;19.09;100.00;92290.38;4920174;29;20205;-60
2022/08/28 06:53:23;;;;;;;1999.90;999.90;;;;;;;19.13;100.00;92301.13;4920232;29;20186;-61
2022/08/28 06:56:21;;;;;;;1999.90;999.90;;;;;;;19.14;100.00;92300.59;4920149;29;20212;-61
2022/08/28 06:58:48;;;;;;;1999.90;999.90;;;;;;;19.17;100.00;92301.53;4904651;29;20233;-59
2022/08/28 07:01:24;;;;;;;1999.90;999.90;;;;;;;19.23;100.00;92299.41;4920123;29;20182;-60
2022/08/28 07:03:52;;;;;;;1999.90;999.90;;;;;;;19.26;100.00;92306.66;4936193;29;20186;-65
2022/08/28 07:06:20;;;;;;;1999.90;999.90;;;;;;;19.34;100.00;92304.75;4935636;29;20296;-64
2022/08/28 07:08:45;;;;;;;1999.90;999.90;;;;;;;19.36;100.00;92321.56;4920264;29;20193;-60
2022/08/28 07:11:21;;;;;;;1999.90;999.90;;;;;;;19.40;100.00;92333.03;4936162;29;20240;-60
2022/08/28 07:13:47;;;;;;;1999.90;999.90;;;;;;;19.30;100.00;92354.13;4920217;29;20217;-60
2022/08/28 07:16:16;;;;;;;1999.90;999.90;;;;;;;19.31;100.00;92383.31;4935831;29;20216;-60
2022/08/28 07:18:42;;;;;;;1999.90;999.90;;;;;;;19.21;100.00;92418.94;4920653;29;20193;-60
2022/08/28 07:21:09;;;;;;;1999.90;999.90;;;;;;;18.99;100.00;92463.59;4919902;29;20225;-60
2022/08/28 07:23:36;;;;;;;1999.90;999.90;;;;;;;18.91;100.00;92490.38;4919830;29;20194;-60
2022/08/28 07:26:08;;;;;;;1999.90;999.90;;;;;;;18.87;100.00;92494.72;4920164;29;20217;-59
2022/08/28 07:28:35;;;;;;;1999.90;999.90;;;;;;;18.87;100.00;92500.25;4936076;29;20201;-58
2022/08/28 07:31:04;;;;;;;1999.90;999.90;;;;;;;18.86;100.00;92509.81;4918966;29;20257;-59
2022/08/28 07:33:31;;;;;;;1999.90;999.90;;;;;;;18.76;100.00;92520.53;4919122;29;20194;-68
2022/08/28 07:35:58;;;;;;;1999.90;999.90;;;;;;;18.83;100.00;92513.66;4919846;29;20202;-59
2022/08/28 07:38:24;;;;;;;1999.90;999.90;;;;;;;18.90;100.00;92513.00;4919997;29;20218;-60
2022/08/28 07:40:50;;;;;;;1999.90;999.90;;;;;;;19.09;100.00;92499.91;4919672;29;20201;-61
2022/08/28 07:46:04;;;;;;;1999.90;999.90;;;;;;;19.28;100.00;92484.00;4936595;29;20217;-60
2022/08/28 07:48:29;;;;;;;1999.90;999.90;;;;;;;19.22;100.00;92508.22;4919299;29;20248;-60
2022/08/28 07:50:55;;;;;;;1999.90;999.90;;;;;;;19.26;100.00;92519.75;4919896;29;20213;-60
2022/08/28 07:53:20;;;;;;;1999.90;999.90;;;;;;;19.23;100.00;92523.56;4919982;29;20237;-60
2022/08/28 07:55:49;;;;;;;1999.90;999.90;;;;;;;19.24;100.00;92527.81;4919436;29;20213;-60
2022/08/28 07:58:14;;;;;;;1999.90;999.90;;;;;;;19.26;100.00;92522.50;4919274;29;20256;-60
2022/08/28 08:00:40;;;;;;;1999.90;999.90;;;;;;;19.29;100.00;92515.94;4935131;29;20193;-60
2022/08/28 08:03:05;;;;;;;1999.90;999.90;;;;;;;19.31;100.00;92518.94;4919584;29;20228;-66
2022/08/28 08:05:31;;;;;;;1999.90;999.90;;;;;;;19.34;100.00;92504.03;4919695;29;20233;-60
2022/08/28 08:07:56;;;;;;;1999.90;999.90;;;;;;;19.32;100.00;92485.19;4919185;29;20265;-61
2022/08/28 08:10:22;;;;;;;1999.90;999.90;;;;;;;19.28;100.00;92481.22;4919275;29;20230;-61
2022/08/28 08:12:48;;;;;;;1999.90;999.90;;;;;;;19.22;100.00;92475.00;4919537;29;20197;-61
2022/08/28 08:15:13;;;;;;;1999.90;999.90;;;;;;;19.10;100.00;92482.03;4935326;29;20197;-59
2022/08/28 08:17:39;;;;;;;1999.90;999.90;;;;;;;18.97;100.00;92481.97;4919170;29;20281;-59
2022/08/28 08:20:07;;;;;;;1999.90;999.90;;;;;;;18.91;100.00;92467.50;4919399;29;20178;-66
2022/08/28 08:22:33;;;;;;;1999.90;999.90;;;;;;;18.87;100.00;92456.00;4919283;29;20185;-60
2022/08/28 08:24:59;;;;;;;1999.90;999.90;;;;;;;18.83;100.00;92444.50;4919114;29;20240;-61
2022/08/28 08:27:24;;;;;;;1999.90;999.90;;;;;;;18.77;100.00;92441.09;4918949;29;20218;-61
2022/08/28 08:29:50;;;;;;;1999.90;999.90;;;;;;;18.72;100.00;92433.63;4919490;29;20270;-61
2022/08/28 08:32:16;;;;;;;1999.90;999.90;;;;;;;18.71;100.00;92421.81;4918943;29;20340;-61
2022/08/28 08:34:44;;;;;;;1999.90;999.90;;;;;;;18.68;100.00;92409.03;4919001;29;20186;-61
2022/08/28 08:37:12;;;;;;;1999.90;999.90;;;;;;;18.66;100.00;92392.25;4918691;29;20241;-61
2022/08/28 08:39:40;;;;;;;1999.90;999.90;;;;;;;18.62;100.00;92385.53;4934672;29;20190;-62
2022/08/28 08:42:17;;;;;;;1999.90;999.90;;;;;;;18.62;100.00;92385.53;4919187;29;20182;-61
2022/08/28 08:44:46;;;;;;;1999.90;999.90;;;;;;;18.64;100.00;92369.91;4922115;29;20378;-62
2022/08/28 08:47:48;;;;;;;1999.90;999.90;;;;;;;18.67;100.00;92345.97;4922336;29;20182;-61
2022/08/28 08:50:21;;;;;;;1999.90;999.90;;;;;;;18.73;100.00;92328.00;4937809;29;20197;-60
2022/08/28 08:53:14;;;;;;;1999.90;999.90;;;;;;;18.81;100.00;92303.25;4922472;29;20188;-61
2022/08/28 08:55:49;;;;;;;1999.90;999.90;;;;;;;18.79;100.00;92291.97;4938305;29;20190;-61
2022/08/28 08:58:30;;;;;;;1999.90;999.90;;;;;;;18.82;100.00;92274.31;4922099;29;20185;-63
2022/08/28 09:01:14;;;;;;;1999.90;999.90;;;;;;;18.85;100.00;92264.94;4937678;29;20202;-62
2022/08/28 09:03:46;;;;;;;1999.90;999.90;;;;;;;18.86;100.00;92266.44;4937821;29;20213;-61
2022/08/28 09:06:35;;;;;;;1999.90;999.90;;;;;;;18.87;100.00;92262.41;4937621;29;20217;-61
2022/08/28 09:09:06;;;;;;;1999.90;999.90;;;;;;;18.86;100.00;92249.84;4922190;29;20210;-61
2022/08/28 09:11:53;;;;;;;1999.90;999.90;;;;;;;18.88;100.00;92248.06;4922070;29;20185;-61
2022/08/28 09:14:24;;;;;;;1999.90;999.90;;;;;;;18.91;100.00;92252.50;4921733;29;20194;-61
2022/08/28 09:16:51;;;;;;;1999.90;999.90;;;;;;;18.89;100.00;92266.13;4938234;29;20224;-60
2022/08/28 09:19:19;;;;;;;1999.90;999.90;;;;;;;18.93;100.00;92271.31;4937393;29;20198;-60
2022/08/28 09:21:46;;;;;;;1999.90;999.90;;;;;;;18.94;100.00;92273.56;4937448;29;20213;-60
2022/08/28 09:24:20;;;;;;;1999.90;999.90;;;;;;;18.96;100.00;92270.28;4921465;29;20194;-60
2022/08/28 09:26:56;;;;;;;1999.90;999.90;;;;;;;18.99;100.00;92263.69;4937617;29;20218;-61
2022/08/28 09:29:34;;;;;;;1999.90;999.90;;;;;;;19.03;100.00;92259.31;4937067;29;20201;-62
2022/08/28 09:32:23;;;;;;;1999.90;999.90;;;;;;;19.07;100.00;92256.22;4921831;29;20197;-61
2022/08/28 09:35:13;;;;;;;1999.90;999.90;;;;;;;19.09;100.00;92250.91;4936817;29;20209;-60
2022/08/28 09:37:40;;;;;;;1999.90;999.90;;;;;;;19.07;100.00;92256.22;4937071;29;20190;-60
2022/08/28 09:40:17;;;;;;;1999.90;999.90;;;;;;;19.04;100.00;92260.03;4921428;29;20186;-60
2022/08/28 09:43:30;;;;;;;1999.90;999.90;;;;;;;19.06;100.00;92257.50;4937699;29;20190;-60
2022/08/28 09:46:05;;;;;;;1999.90;999.90;;;;;;;19.05;100.00;92262.28;4937062;29;20214;-61
2022/08/28 09:48:38;;;;;;;1999.90;999.90;;;;;;;18.98;100.00;92262.19;4936670;29;20206;-61
2022/08/28 09:51:11;;;;;;;1999.90;999.90;;;;;;;18.96;100.00;92265.50;4936854;29;20288;-60
2022/08/28 09:53:41;;;;;;;1999.90;999.90;;;;;;;18.98;100.00;92273.25;4936966;29;20198;-61
2022/08/28 09:56:16;;;;;;;1999.90;999.90;;;;;;;19.00;100.00;92270.69;4936372;29;20221;-61
2022/08/28 09:58:51;;;;;;;1999.90;999.90;;;;;;;18.98;100.00;92268.44;4936914;29;20260;-61
2022/08/28 10:01:35;;;;;;;1999.90;999.90;;;;;;;18.99;100.00;92269.97;4921033;29;20212;-61
2022/08/28 10:04:08;;;;;;;1999.90;999.90;;;;;;;19.00;100.00;92265.16;4936847;29;20284;-60
2022/08/28 10:06:35;;;;;;;1999.90;999.90;;;;;;;18.99;100.00;92263.69;4936252;29;20217;-64
2022/08/28 10:09:18;;;;;;;1999.90;999.90;;;;;;;19.07;100.00;92250.69;4920799;29;20230;-65
2022/08/28 10:12:19;;;;;;;1999.90;999.90;;;;;;;19.06;100.00;92252.69;4936733;29;20296;-64
2022/08/28 10:15:05;;;;;;;1999.90;999.90;;;;;;;19.00;100.00;92245.78;4936837;29;20221;-62
2022/08/28 10:17:53;;;;;;;1999.90;999.90;;;;;;;19.05;100.00;92250.50;4936517;29;20198;-61
2022/08/28 10:20:27;;;;;;;1999.90;999.90;;;;;;;19.05;100.00;92244.94;4936435;29;20196;-61
2022/08/28 10:23:05;;;;;;;1999.90;999.90;;;;;;;19.01;100.00;92250.03;4936689;29;20181;-61
2022/08/28 10:25:50;;;;;;;1999.90;999.90;;;;;;;18.97;100.00;92255.16;4920444;29;20221;-62
2022/08/28 10:28:47;;;;;;;1999.90;999.90;;;;;;;18.98;100.00;92251.13;4920651;29;20194;-61
2022/08/28 10:31:22;;;;;;;1999.90;999.90;;;;;;;18.95;100.00;92252.19;4936322;29;20200;-62
2022/08/28 10:34:21;;;;;;;1999.90;999.90;;;;;;;18.89;100.00;92259.84;4936203;29;20189;-62
2022/08/28 10:37:02;;;;;;;1999.90;999.90;;;;;;;18.87;100.00;92265.19;4935953;29;20292;-62
2022/08/28 10:39:50;;;;;;;1999.90;999.90;;;;;;;18.82;100.00;92260.47;4936016;29;20248;-63
2022/08/28 10:42:25;;;;;;;1999.90;999.90;;;;;;;18.85;100.00;92253.91;4936319;29;20198;-64
2022/08/28 10:45:04;;;;;;;1999.90;999.90;;;;;;;18.87;100.00;92251.34;4920034;29;20203;-63
2022/08/28 10:47:34;;;;;;;1999.90;999.90;;;;;;;18.88;100.00;92247.31;4920540;29;20273;-64
2022/08/28 10:50:10;;;;;;;1999.90;999.90;;;;;;;18.95;100.00;92241.84;4920422;29;20198;-63
2022/08/28 10:52:45;;;;;;;1999.90;999.90;;;;;;;19.00;100.00;92231.97;4936290;29;20185;-62
2022/08/28 10:55:47;;;;;;;1999.90;999.90;;;;;;;19.08;100.00;92232.78;4936951;29;20185;-63
2022/08/28 10:58:14;;;;;;;1999.90;999.90;;;;;;;19.19;100.00;92218.72;4918655;29;20268;-63
2022/08/28 11:00:42;;;;;;;1999.90;999.90;;;;;;;19.16;100.00;92206.00;4935807;29;20194;-63
2022/08/28 11:03:18;;;;;;;1999.90;999.90;;;;;;;19.25;100.00;92192.47;4919961;29;20201;-62